Terminal Aerodrome Forecast
Issued by NWS

Home | Current Version | Previous Version | Text Only | Print | Product List | Glossary On
Versions: 1 2 3 4 5 6 7 8 9 10 11 12 13 14 15 16 17
168
FTPA31 PHFO 141720
TAFHTO
TAF
PHTO 141720Z 1418/1518 34011KT P6SM -SHRA SCT020 BKN035
     FM142000 36018G25KT P6SM VCSH SCT025 BKN040
     FM150400 35015KT P6SM VCSH SCT020 BKN040=

USA.gov is the U.S. government's official web portal to all federal, state and local government web resources and services.